createdAt,value
2022-08-02T00:00:50.354Z,1.15
2022-08-02T00:01:52.738Z,1.20
2022-08-02T00:02:49.870Z,1.00
2022-08-02T00:03:46.704Z,1.00
2022-08-02T00:04:43.501Z,1.20
2022-08-02T00:05:40.393Z,1.33
2022-08-02T00:06:37.843Z,1.20
2022-08-02T00:07:40.902Z,1.20
2022-08-02T00:08:37.885Z,1.30
2022-08-02T00:09:34.580Z,1.25
2022-08-02T00:10:31.237Z,1.40
2022-08-02T00:11:27.941Z,1.55
2022-08-02T00:12:25.014Z,1.20
2022-08-02T00:13:21.814Z,1.15
2022-08-02T00:14:18.605Z,1.20
2022-08-02T00:15:16.129Z,1.17
2022-08-02T00:16:16.698Z,1.13
2022-08-02T00:17:13.761Z,1.30
2022-08-02T00:18:10.376Z,1.30
2022-08-02T00:19:07.044Z,1.30
2022-08-02T00:20:05.649Z,1.10
2022-08-02T00:21:02.278Z,1.20
2022-08-02T00:21:58.946Z,1.17
2022-08-02T00:22:55.597Z,1.00
2022-08-02T00:24:27.487Z,1.20
2022-08-02T00:25:09.310Z,1.30
2022-08-02T00:26:06.073Z,1.20
2022-08-02T00:27:09.577Z,1.10
2022-08-02T00:28:06.525Z,1.50
2022-08-02T00:29:04.029Z,1.23
2022-08-02T00:30:00.662Z,1.30
2022-08-02T00:30:58.540Z,1.20
2022-08-02T00:31:55.187Z,1.10
2022-08-02T00:32:51.851Z,1.20
2022-08-02T00:34:09.057Z,1.30
2022-08-02T00:35:05.599Z,1.30
2022-08-02T00:36:02.408Z,1.00
2022-08-02T00:36:59.080Z,1.25
2022-08-02T00:37:55.685Z,1.10
2022-08-02T00:38:52.609Z,1.25
2022-08-02T00:39:49.295Z,1.40
2022-08-02T00:40:56.483Z,0.93
2022-08-02T00:41:54.754Z,1.27
2022-08-02T00:43:08.449Z,1.20
2022-08-02T00:44:05.253Z,1.00
2022-08-02T00:45:01.946Z,1.60
2022-08-02T00:46:03.319Z,1.45
2022-08-02T00:47:01.341Z,1.00
2022-08-02T00:47:57.978Z,1.33
2022-08-02T00:48:56.156Z,1.20
2022-08-02T00:49:52.902Z,1.20
2022-08-02T00:50:49.564Z,1.25
2022-08-02T00:51:46.211Z,1.30
2022-08-02T00:52:42.799Z,1.30
2022-08-02T00:53:39.892Z,1.40
2022-08-02T00:54:36.568Z,1.48
2022-08-02T00:55:33.301Z,1.10
2022-08-02T00:56:30.070Z,1.05
2022-08-02T00:57:26.757Z,1.20
2022-08-02T00:58:23.406Z,1.02
2022-08-02T00:59:20.088Z,1.25
2022-08-02T01:00:16.858Z,1.05
2022-08-02T01:01:15.376Z,1.30
2022-08-02T01:02:12.370Z,1.00
2022-08-02T01:03:09.178Z,1.23
2022-08-02T01:04:10.785Z,1.17
2022-08-02T01:05:08.126Z,1.47
2022-08-02T01:06:12.193Z,1.27
2022-08-02T01:07:12.083Z,1.48
2022-08-02T01:08:10.891Z,1.50
2022-08-02T01:09:08.564Z,1.55
2022-08-02T01:10:05.831Z,1.38
2022-08-02T01:11:02.499Z,1.50
2022-08-02T01:12:02.755Z,1.50
2022-08-02T01:12:59.653Z,1.45
2022-08-02T01:14:04.170Z,1.60
2022-08-02T01:15:06.543Z,1.30
2022-08-02T01:16:15.039Z,1.25
2022-08-02T01:17:29.827Z,1.73
2022-08-02T01:18:35.675Z,1.10
2022-08-02T01:19:32.755Z,1.17
2022-08-02T01:20:59.709Z,1.10
2022-08-02T01:22:20.181Z,1.33
2022-08-02T01:23:40.176Z,1.55
2022-08-02T01:24:54.875Z,1.48
2022-08-02T01:26:13.210Z,1.58
2022-08-02T01:27:22.268Z,1.50
2022-08-02T01:28:43.939Z,1.25
2022-08-02T01:29:45.578Z,1.45
2022-08-02T01:30:47.009Z,1.50
2022-08-02T01:32:06.063Z,1.27
2022-08-02T01:33:04.940Z,1.40
2022-08-02T01:34:06.787Z,1.40
2022-08-02T01:35:15.042Z,1.50
2022-08-02T01:36:14.172Z,1.38
2022-08-02T01:37:18.065Z,1.50
2022-08-02T01:38:20.742Z,1.00
2022-08-02T01:39:26.906Z,1.13
2022-08-02T01:40:34.360Z,1.45
2022-08-02T01:41:33.246Z,1.42
2022-08-02T01:42:32.735Z,1.30
2022-08-02T01:43:31.245Z,1.50
2022-08-02T01:44:31.975Z,1.50
2022-08-02T01:45:34.708Z,1.08
2022-08-02T01:46:34.152Z,1.38
2022-08-02T01:47:35.730Z,1.27
2022-08-02T01:48:34.845Z,1.40
2022-08-02T01:49:34.759Z,1.60
2022-08-02T01:50:34.985Z,1.40
2022-08-02T01:51:53.230Z,1.52
2022-08-02T01:52:53.937Z,1.35
2022-08-02T01:53:51.588Z,1.20
2022-08-02T01:55:18.678Z,1.50
2022-08-02T01:56:17.641Z,1.40
2022-08-02T01:57:16.169Z,1.40
2022-08-02T01:58:16.635Z,1.55
2022-08-02T01:59:18.922Z,1.50
2022-08-02T02:00:17.639Z,1.50
2022-08-02T02:01:18.439Z,1.50
2022-08-02T02:02:16.712Z,1.35
2022-08-02T02:03:18.578Z,1.50
2022-08-02T02:04:17.854Z,1.70
2022-08-02T02:05:17.212Z,1.75
2022-08-02T02:06:16.140Z,1.58
2022-08-02T02:07:15.730Z,1.38
2022-08-02T02:08:13.640Z,1.20
2022-08-02T02:09:28.057Z,1.70
2022-08-02T02:10:34.462Z,1.20
2022-08-02T02:12:09.652Z,1.35
2022-08-02T02:12:51.308Z,1.40
2022-08-02T02:13:50.270Z,1.25
2022-08-02T02:14:51.984Z,1.50
2022-08-02T02:15:50.923Z,1.27
2022-08-02T02:16:49.589Z,1.52
2022-08-02T02:18:11.293Z,1.50
2022-08-02T02:19:09.354Z,1.50
2022-08-02T02:20:06.772Z,1.20
2022-08-02T02:21:03.556Z,1.67
2022-08-02T02:22:00.362Z,1.80
2022-08-02T02:22:59.343Z,1.80
2022-08-02T02:23:56.587Z,1.70
2022-08-02T02:24:54.498Z,1.45
2022-08-02T02:25:55.636Z,1.75
2022-08-02T02:26:52.937Z,1.80
2022-08-02T02:27:58.185Z,1.60
2022-08-02T02:28:57.021Z,1.52
2022-08-02T02:29:54.632Z,1.98
2022-08-02T02:30:58.781Z,1.42
2022-08-02T02:31:56.892Z,1.83
2022-08-02T02:32:57.705Z,1.50
2022-08-02T02:34:03.100Z,1.50
2022-08-02T02:35:03.835Z,1.65
2022-08-02T02:36:02.975Z,1.80
2022-08-02T02:37:04.634Z,1.60
2022-08-02T02:38:04.451Z,1.73
2022-08-02T02:39:05.460Z,1.60
2022-08-02T02:40:11.510Z,1.58
2022-08-02T02:41:08.317Z,1.50
2022-08-02T02:42:09.409Z,1.77
2022-08-02T02:43:08.231Z,1.77
2022-08-02T02:44:09.207Z,1.70
2022-08-02T02:45:06.677Z,1.90
2022-08-02T02:46:05.553Z,1.73
2022-08-02T02:47:03.183Z,1.58
2022-08-02T02:48:01.765Z,1.50
2022-08-02T02:48:58.958Z,1.60
2022-08-02T02:49:57.672Z,1.50
2022-08-02T02:50:56.224Z,1.40
2022-08-02T02:51:53.795Z,1.35
2022-08-02T02:52:51.476Z,1.75
2022-08-02T02:54:32.389Z,1.52
2022-08-02T02:55:08.748Z,1.70
2022-08-02T02:56:05.655Z,1.40
2022-08-02T02:57:05.585Z,1.52
2022-08-02T02:58:03.009Z,1.60
2022-08-02T02:59:00.822Z,1.50
2022-08-02T02:59:58.797Z,1.58
2022-08-02T03:01:14.735Z,1.60
2022-08-02T03:02:12.586Z,2.00
2022-08-02T03:03:10.231Z,1.98
2022-08-02T03:04:09.942Z,1.85
2022-08-02T03:05:08.905Z,1.70
2022-08-02T03:06:15.146Z,1.83
2022-08-02T03:07:12.934Z,1.50
2022-08-02T03:08:09.650Z,1.80
2022-08-02T03:09:07.330Z,1.98
2022-08-02T03:10:06.180Z,1.77
2022-08-02T03:11:02.944Z,1.70
2022-08-02T03:12:02.656Z,2.00
2022-08-02T03:12:59.886Z,1.90
2022-08-02T03:13:59.678Z,1.75
2022-08-02T03:14:58.593Z,1.60
2022-08-02T03:15:56.965Z,1.90
2022-08-02T03:16:55.694Z,1.40
2022-08-02T03:17:52.386Z,1.63
2022-08-02T03:18:48.993Z,1.45
2022-08-02T03:19:46.034Z,1.70
2022-08-02T03:20:42.709Z,1.90
2022-08-02T03:21:39.586Z,1.60
2022-08-02T03:22:36.814Z,1.60
2022-08-02T03:23:34.179Z,2.10
2022-08-02T03:24:30.884Z,1.77
2022-08-02T03:25:27.494Z,1.63
2022-08-02T03:26:24.207Z,1.55
2022-08-02T03:27:20.865Z,1.35
2022-08-02T03:28:17.502Z,1.50
2022-08-02T03:29:14.187Z,1.60
2022-08-02T03:30:12.643Z,1.80
2022-08-02T03:31:09.393Z,1.50
2022-08-02T03:32:06.144Z,1.55
2022-08-02T03:33:02.920Z,1.60
2022-08-02T03:34:02.630Z,1.50
2022-08-02T03:34:59.433Z,1.67
2022-08-02T03:35:59.156Z,1.50
2022-08-02T03:36:56.834Z,1.83
2022-08-02T03:37:55.907Z,1.70
2022-08-02T03:38:53.552Z,1.77
2022-08-02T03:39:53.135Z,1.92
2022-08-02T03:40:51.199Z,1.85
2022-08-02T03:41:49.401Z,1.77
2022-08-02T03:42:46.670Z,1.63
2022-08-02T03:43:45.154Z,1.50
2022-08-02T03:44:42.676Z,1.65
2022-08-02T03:45:42.164Z,1.45
2022-08-02T03:46:40.010Z,1.65
2022-08-02T03:47:39.228Z,1.98
2022-08-02T03:48:37.261Z,1.80
2022-08-02T03:49:35.731Z,1.83
2022-08-02T03:50:33.941Z,1.80
2022-08-02T03:51:30.955Z,1.85
2022-08-02T03:52:28.751Z,1.70
2022-08-02T03:53:25.682Z,1.58
2022-08-02T03:54:22.570Z,2.13
2022-08-02T03:55:29.966Z,1.92
2022-08-02T03:56:26.801Z,2.00
2022-08-02T03:57:23.485Z,1.80
2022-08-02T03:58:21.633Z,2.15
2022-08-02T03:59:18.332Z,1.92
2022-08-02T04:00:19.250Z,1.75
2022-08-02T04:01:16.413Z,1.85
2022-08-02T04:02:14.538Z,1.70
2022-08-02T04:03:11.384Z,1.83
2022-08-02T04:04:19.065Z,1.90
2022-08-02T04:05:19.469Z,2.30
2022-08-02T04:06:16.212Z,2.00
2022-08-02T04:07:12.904Z,2.00
2022-08-02T04:08:35.821Z,1.60
2022-08-02T04:09:26.412Z,1.73
2022-08-02T04:10:23.097Z,1.70
2022-08-02T04:11:31.778Z,2.10
2022-08-02T04:12:28.387Z,1.65
2022-08-02T04:13:35.618Z,1.63
2022-08-02T04:14:36.106Z,1.60
2022-08-02T04:15:33.611Z,1.40
2022-08-02T04:16:48.566Z,1.30
2022-08-02T04:17:59.080Z,1.73
2022-08-02T04:19:00.529Z,1.70
2022-08-02T04:20:03.694Z,1.40
2022-08-02T04:21:04.966Z,1.92
2022-08-02T04:22:06.884Z,1.80
2022-08-02T04:23:10.208Z,1.42
2022-08-02T04:24:11.016Z,1.38
2022-08-02T04:25:17.374Z,1.30
2022-08-02T04:26:14.279Z,1.38
2022-08-02T04:27:49.274Z,1.60
2022-08-02T04:28:30.521Z,1.67
2022-08-02T04:29:27.730Z,1.40
2022-08-02T04:30:25.080Z,1.73
2022-08-02T04:31:22.734Z,1.30
2022-08-02T04:32:20.329Z,1.58
2022-08-02T04:33:17.703Z,1.65
2022-08-02T04:34:15.634Z,1.42
2022-08-02T04:35:21.007Z,1.40
2022-08-02T04:36:30.756Z,1.63
2022-08-02T04:37:28.150Z,1.60
2022-08-02T04:38:25.720Z,1.60
2022-08-02T04:39:22.415Z,1.30
2022-08-02T04:40:19.023Z,1.73
2022-08-02T04:41:15.839Z,1.35
2022-08-02T04:42:21.044Z,1.40
2022-08-02T04:43:18.110Z,1.40
2022-08-02T04:44:14.774Z,1.52
2022-08-02T04:45:16.541Z,1.55
2022-08-02T04:46:14.064Z,1.48
2022-08-02T04:47:10.743Z,1.40
2022-08-02T04:48:08.044Z,1.35
2022-08-02T04:49:05.625Z,1.40
2022-08-02T04:50:02.420Z,1.35
2022-08-02T04:50:59.300Z,1.63
2022-08-02T04:51:55.934Z,1.17
2022-08-02T04:52:52.655Z,1.17
2022-08-02T04:53:49.367Z,1.10
2022-08-02T04:54:46.061Z,1.30
2022-08-02T04:55:43.686Z,1.02
2022-08-02T04:56:40.814Z,1.05
2022-08-02T04:57:55.823Z,1.13
2022-08-02T04:58:52.521Z,1.20
2022-08-02T04:59:52.855Z,0.95
2022-08-02T05:00:51.445Z,1.50
2022-08-02T05:01:48.165Z,1.40
2022-08-02T05:02:44.856Z,1.30
2022-08-02T05:03:41.455Z,1.40
2022-08-02T05:04:38.085Z,1.40
2022-08-02T05:05:34.818Z,1.40
2022-08-02T05:06:32.169Z,1.38
2022-08-02T05:07:28.853Z,1.45
2022-08-02T05:08:32.858Z,1.50
2022-08-02T05:09:29.517Z,1.30
2022-08-02T05:10:26.162Z,1.30
2022-08-02T05:11:34.617Z,1.60
2022-08-02T05:12:33.461Z,1.30
2022-08-02T05:13:30.285Z,1.35
2022-08-02T05:14:26.908Z,1.38
2022-08-02T05:15:23.663Z,1.50
2022-08-02T05:16:21.154Z,1.65
2022-08-02T05:17:28.387Z,2.17
2022-08-02T05:18:25.006Z,1.30
2022-08-02T05:19:21.689Z,1.30
2022-08-02T05:20:18.952Z,1.42
2022-08-02T05:21:15.572Z,1.30
2022-08-02T05:22:12.544Z,1.55
2022-08-02T05:23:09.682Z,1.63
2022-08-02T05:24:06.891Z,1.50
2022-08-02T05:25:03.832Z,1.63
2022-08-02T05:26:00.497Z,1.60
2022-08-02T05:26:57.127Z,1.50
2022-08-02T05:27:54.088Z,1.65
2022-08-02T05:28:50.773Z,1.48
2022-08-02T05:29:53.119Z,1.63
2022-08-02T05:30:52.175Z,1.38
2022-08-02T05:31:49.303Z,1.52
2022-08-02T05:32:48.272Z,1.65
2022-08-02T05:33:44.889Z,1.60
2022-08-02T05:34:41.540Z,1.40
2022-08-02T05:35:38.281Z,1.55
2022-08-02T05:36:34.960Z,1.80
2022-08-02T05:37:33.165Z,1.35
2022-08-02T05:38:32.545Z,1.90
2022-08-02T05:39:33.819Z,1.83
2022-08-02T05:40:32.023Z,1.90
2022-08-02T05:41:28.672Z,1.85
2022-08-02T05:42:25.441Z,1.90
2022-08-02T05:43:23.336Z,1.90
2022-08-02T05:44:20.771Z,1.98
2022-08-02T05:45:17.948Z,1.60
2022-08-02T05:46:14.630Z,1.80
2022-08-02T05:47:11.367Z,1.83
2022-08-02T05:48:08.567Z,1.90
2022-08-02T05:49:05.276Z,2.10
2022-08-02T05:50:04.601Z,1.75
2022-08-02T05:51:25.505Z,1.90
2022-08-02T05:52:26.226Z,1.60
2022-08-02T05:53:36.218Z,1.90
2022-08-02T05:54:57.353Z,1.65
2022-08-02T05:56:08.591Z,1.60
2022-08-02T05:57:17.351Z,1.80
2022-08-02T05:58:24.868Z,1.88
2022-08-02T06:00:13.727Z,1.95
2022-08-02T06:01:14.268Z,1.58
2022-08-02T06:02:30.912Z,1.65
2022-08-02T06:03:39.933Z,1.73
2022-08-02T06:05:05.411Z,2.00
2022-08-02T06:06:06.312Z,2.10
2022-08-02T06:07:06.648Z,2.08
2022-08-02T06:08:04.544Z,1.88
2022-08-02T06:09:09.847Z,2.10
2022-08-02T06:10:07.622Z,1.98
2022-08-02T06:11:06.602Z,2.05
2022-08-02T06:12:04.084Z,1.80
2022-08-02T06:13:16.830Z,1.70
2022-08-02T06:14:13.909Z,1.70
2022-08-02T06:15:14.900Z,1.90
2022-08-02T06:16:14.229Z,1.98
2022-08-02T06:17:12.688Z,1.95
2022-08-02T06:18:09.576Z,2.08
2022-08-02T06:19:06.426Z,1.70
2022-08-02T06:20:04.329Z,1.95
2022-08-02T06:22:31.551Z,1.77
2022-08-02T06:22:32.598Z,1.80
2022-08-02T06:23:32.347Z,2.00
2022-08-02T06:24:34.433Z,1.58
2022-08-02T06:25:50.119Z,1.90
2022-08-02T06:26:55.149Z,1.70
2022-08-02T06:27:53.959Z,1.90
2022-08-02T06:28:53.607Z,1.55
2022-08-02T06:29:50.529Z,1.80
2022-08-02T06:30:47.488Z,1.80
2022-08-02T06:31:45.160Z,1.67
2022-08-02T06:32:44.412Z,1.73
2022-08-02T06:33:41.092Z,1.45
2022-08-02T06:34:40.608Z,1.60
2022-08-02T06:36:14.243Z,1.52
2022-08-02T06:37:28.070Z,1.75
2022-08-02T06:38:27.460Z,1.60
2022-08-02T06:39:40.930Z,1.90
2022-08-02T06:40:48.413Z,1.73
2022-08-02T06:41:49.838Z,1.73
2022-08-02T06:42:56.946Z,1.67
2022-08-02T06:44:19.657Z,1.80
2022-08-02T06:45:18.747Z,1.70
2022-08-02T06:46:57.009Z,2.10
2022-08-02T06:47:32.165Z,1.80
2022-08-02T06:48:30.528Z,1.70
2022-08-02T06:49:27.781Z,1.83
2022-08-02T06:50:44.420Z,1.80
2022-08-02T06:51:41.060Z,1.60
2022-08-02T06:52:37.869Z,2.00
2022-08-02T06:53:34.660Z,1.75
2022-08-02T06:54:31.397Z,1.73
2022-08-02T06:55:29.668Z,1.90
2022-08-02T06:56:26.376Z,1.77
2022-08-02T06:57:23.007Z,1.80
2022-08-02T06:58:19.630Z,1.80
2022-08-02T06:59:16.394Z,1.83
2022-08-02T07:00:13.349Z,1.80
2022-08-02T07:01:10.123Z,1.50
2022-08-02T07:02:06.851Z,1.88
2022-08-02T07:03:06.783Z,1.90
2022-08-02T07:04:04.450Z,1.70
2022-08-02T07:05:01.358Z,1.60
2022-08-02T07:05:57.982Z,1.70
2022-08-02T07:06:55.389Z,1.70
2022-08-02T07:07:52.229Z,1.70
2022-08-02T07:09:11.148Z,1.55
2022-08-02T07:10:06.332Z,1.60
2022-08-02T07:11:04.071Z,1.58
2022-08-02T07:12:02.082Z,1.90
2022-08-02T07:13:00.003Z,1.90
2022-08-02T07:13:56.780Z,1.95
2022-08-02T07:14:53.398Z,1.73
2022-08-02T07:15:50.072Z,1.90
2022-08-02T07:16:46.710Z,1.55
2022-08-02T07:17:43.398Z,1.98
2022-08-02T07:18:40.020Z,1.50
2022-08-02T07:19:37.840Z,1.88
2022-08-02T07:20:35.102Z,2.00
2022-08-02T07:21:57.162Z,1.63
2022-08-02T07:22:48.523Z,1.80
2022-08-02T07:23:45.123Z,1.83
2022-08-02T07:24:42.033Z,1.70
2022-08-02T07:26:02.710Z,1.80
2022-08-02T07:27:10.478Z,1.58
2022-08-02T07:28:16.844Z,1.58
2022-08-02T07:29:20.429Z,1.70
2022-08-02T07:30:17.190Z,1.48
2022-08-02T07:31:13.848Z,1.60
2022-08-02T07:32:10.754Z,1.42
2022-08-02T07:33:08.008Z,1.52
2022-08-02T07:34:24.666Z,1.30
2022-08-02T07:35:22.127Z,1.45
2022-08-02T07:36:22.830Z,1.65
2022-08-02T07:37:35.711Z,1.10
2022-08-02T07:38:38.204Z,1.13
2022-08-02T07:39:34.823Z,1.20
2022-08-02T07:40:32.548Z,1.30
2022-08-02T07:41:29.307Z,1.10
2022-08-02T07:42:26.031Z,1.20
2022-08-02T07:43:22.608Z,1.10
2022-08-02T07:44:19.573Z,0.90
2022-08-02T07:45:16.343Z,1.10
2022-08-02T07:46:13.020Z,1.20
2022-08-02T07:47:10.161Z,1.00
2022-08-02T07:48:08.555Z,1.40
2022-08-02T07:49:05.276Z,1.67
2022-08-02T07:50:02.890Z,1.42
2022-08-02T07:50:59.556Z,1.63
2022-08-02T07:51:56.907Z,1.20
2022-08-02T07:52:57.269Z,1.40
2022-08-02T07:54:02.500Z,1.08
2022-08-02T07:55:01.360Z,1.20
2022-08-02T07:55:57.975Z,1.20
2022-08-02T07:56:58.542Z,1.10
2022-08-02T07:57:55.918Z,1.25
2022-08-02T07:58:52.652Z,1.70
2022-08-02T07:59:50.728Z,1.40
2022-08-02T08:00:47.427Z,1.30
2022-08-02T08:01:46.142Z,1.13
2022-08-02T08:02:43.420Z,1.35
2022-08-02T08:03:40.014Z,1.10
2022-08-02T08:04:36.650Z,1.25
2022-08-02T08:05:33.347Z,1.08
2022-08-02T08:06:30.898Z,1.13
2022-08-02T08:07:27.642Z,1.10
2022-08-02T08:08:24.362Z,0.90
2022-08-02T08:09:21.041Z,1.20
2022-08-02T08:10:17.835Z,0.70
2022-08-02T08:11:14.498Z,0.90
2022-08-02T08:12:13.029Z,1.10
2022-08-02T08:13:10.046Z,0.95
2022-08-02T08:14:07.185Z,1.00
2022-08-02T08:15:04.576Z,1.00
2022-08-02T08:16:02.377Z,0.95
2022-08-02T08:16:58.976Z,0.95
2022-08-02T08:17:57.211Z,1.08
2022-08-02T08:18:53.866Z,0.93
2022-08-02T08:19:52.650Z,0.90
2022-08-02T08:20:50.225Z,0.80
2022-08-02T08:21:47.359Z,0.80
2022-08-02T08:22:44.153Z,0.80
2022-08-02T08:23:41.287Z,0.80
2022-08-02T08:24:38.555Z,0.77
2022-08-02T08:25:39.908Z,0.98
2022-08-02T08:26:39.920Z,0.80
2022-08-02T08:27:37.215Z,1.00
2022-08-02T08:28:35.601Z,0.80
2022-08-02T08:29:32.546Z,0.82
2022-08-02T08:30:29.183Z,0.70
2022-08-02T08:31:25.786Z,0.70
2022-08-02T08:32:23.331Z,0.60
2022-08-02T08:33:20.365Z,0.90
2022-08-02T08:34:16.951Z,0.85
2022-08-02T08:35:14.042Z,0.90
2022-08-02T08:36:10.691Z,0.70
2022-08-02T08:37:07.412Z,0.73
2022-08-02T08:38:07.518Z,0.68
2022-08-02T08:39:05.015Z,0.60
2022-08-02T08:40:01.832Z,0.82
2022-08-02T08:40:58.610Z,0.90
2022-08-02T08:41:55.859Z,0.70
2022-08-02T08:42:52.721Z,0.85
2022-08-02T08:43:53.261Z,0.80
2022-08-02T08:44:51.498Z,0.90
2022-08-02T08:45:55.906Z,0.88
2022-08-02T08:46:56.347Z,0.90
2022-08-02T08:48:05.481Z,0.90
2022-08-02T08:49:09.371Z,0.90
2022-08-02T08:50:24.867Z,0.90
2022-08-02T08:51:23.447Z,0.77
2022-08-02T08:52:23.789Z,0.90
2022-08-02T08:53:22.158Z,0.80
2022-08-02T08:54:36.051Z,0.70
2022-08-02T08:55:34.449Z,0.90
2022-08-02T08:56:34.412Z,0.82
2022-08-02T08:57:35.138Z,0.90
2022-08-02T08:58:31.828Z,0.77
2022-08-02T08:59:28.461Z,0.82
2022-08-02T09:00:25.417Z,0.60
2022-08-02T09:01:22.338Z,0.70
2022-08-02T09:02:22.586Z,0.77
2022-08-02T09:03:21.453Z,0.70
2022-08-02T09:04:18.918Z,0.70
2022-08-02T09:05:17.390Z,0.75
2022-08-02T09:06:14.036Z,0.60
2022-08-02T09:07:10.698Z,0.80
2022-08-02T09:08:11.209Z,0.65
2022-08-02T09:09:10.259Z,0.82
2022-08-02T09:10:36.177Z,0.70
2022-08-02T09:11:32.826Z,0.70
2022-08-02T09:12:29.680Z,0.80
2022-08-02T09:13:45.850Z,0.90
2022-08-02T09:14:42.937Z,0.70
2022-08-02T09:15:40.889Z,0.80
2022-08-02T09:16:42.761Z,0.80
2022-08-02T09:17:51.008Z,0.70
2022-08-02T09:18:47.788Z,0.80
2022-08-02T09:19:45.737Z,0.60
2022-08-02T09:20:55.397Z,0.80
2022-08-02T09:22:12.030Z,0.70
2022-08-02T09:23:11.513Z,0.60
2022-08-02T09:24:16.857Z,0.77
2022-08-02T09:25:16.915Z,0.80
2022-08-02T09:26:22.565Z,0.70
2022-08-02T09:27:21.368Z,0.73
2022-08-02T09:28:18.070Z,0.80
2022-08-02T09:29:15.738Z,0.80
2022-08-02T09:30:14.256Z,0.80
2022-08-02T09:31:17.117Z,0.77
2022-08-02T09:32:14.763Z,0.60
2022-08-02T09:33:11.727Z,0.70
2022-08-02T09:34:08.635Z,0.75
2022-08-02T09:35:07.993Z,0.70
2022-08-02T09:36:08.171Z,0.75
2022-08-02T09:37:05.171Z,0.70
2022-08-02T09:38:12.594Z,0.70
2022-08-02T09:39:11.968Z,0.80
2022-08-02T09:40:10.820Z,0.70
2022-08-02T09:41:27.127Z,0.70
2022-08-02T09:42:23.843Z,0.70
2022-08-02T09:43:52.419Z,0.70
2022-08-02T09:44:59.775Z,0.70
2022-08-02T09:45:56.707Z,0.80
2022-08-02T09:46:53.326Z,0.60
2022-08-02T09:47:49.961Z,0.73
2022-08-02T09:48:54.596Z,0.70
2022-08-02T09:49:52.519Z,0.70
2022-08-02T09:50:49.486Z,0.70
2022-08-02T09:51:49.271Z,0.70
2022-08-02T09:52:45.914Z,0.70
2022-08-02T09:53:43.060Z,0.80
2022-08-02T09:54:40.517Z,0.60
2022-08-02T09:55:37.238Z,0.70
2022-08-02T09:56:43.301Z,0.70
2022-08-02T09:57:40.174Z,0.70
2022-08-02T09:58:40.101Z,0.63
2022-08-02T09:59:36.783Z,0.70
2022-08-02T10:00:51.757Z,0.80
2022-08-02T10:01:51.606Z,0.70
2022-08-02T10:03:07.921Z,0.60
2022-08-02T10:04:07.842Z,0.70
2022-08-02T10:05:05.917Z,0.73
2022-08-02T10:06:04.502Z,0.80
2022-08-02T10:07:04.393Z,0.80
2022-08-02T10:08:01.404Z,0.60
2022-08-02T10:08:58.194Z,0.70
2022-08-02T10:09:55.956Z,0.70
2022-08-02T10:11:00.597Z,0.77
2022-08-02T10:11:58.186Z,0.70
2022-08-02T10:12:54.851Z,0.60
2022-08-02T10:13:52.880Z,0.70
2022-08-02T10:14:52.777Z,0.73
2022-08-02T10:15:50.604Z,0.60
2022-08-02T10:16:47.511Z,0.68
2022-08-02T10:17:45.091Z,0.60
2022-08-02T10:18:41.828Z,0.70
2022-08-02T10:20:03.355Z,0.60
2022-08-02T10:20:58.205Z,0.63
2022-08-02T10:22:04.249Z,0.68
2022-08-02T10:23:03.006Z,0.80
2022-08-02T10:24:12.471Z,0.70
2022-08-02T10:25:09.902Z,0.70
2022-08-02T10:26:08.125Z,0.70
2022-08-02T10:27:06.986Z,0.90
2022-08-02T10:28:06.269Z,0.70
2022-08-02T10:29:02.998Z,0.75
2022-08-02T10:30:00.743Z,0.70
2022-08-02T10:30:59.652Z,0.70
2022-08-02T10:32:14.096Z,0.80
2022-08-02T10:33:13.540Z,0.90
2022-08-02T10:34:13.835Z,0.60
2022-08-02T10:35:25.774Z,0.70
2022-08-02T10:36:27.137Z,0.70
2022-08-02T10:37:29.591Z,0.88
2022-08-02T10:39:23.201Z,0.80
2022-08-02T10:40:29.130Z,0.80
2022-08-02T10:41:49.480Z,0.80
2022-08-02T10:42:48.930Z,0.80
2022-08-02T10:43:48.240Z,0.70
2022-08-02T10:44:44.892Z,0.75
2022-08-02T10:45:41.558Z,0.70
2022-08-02T10:46:38.289Z,0.80
2022-08-02T10:47:34.915Z,0.80
2022-08-02T10:48:31.567Z,0.80
2022-08-02T10:49:44.184Z,0.80
2022-08-02T10:50:49.530Z,0.90
2022-08-02T10:52:02.093Z,0.90
2022-08-02T10:53:21.699Z,0.85
2022-08-02T10:54:21.905Z,0.80
2022-08-02T10:55:22.342Z,0.82
2022-08-02T10:56:45.606Z,0.63
2022-08-02T10:57:42.259Z,0.93
2022-08-02T10:58:45.482Z,0.90
2022-08-02T10:59:42.432Z,0.82
2022-08-02T11:00:39.049Z,0.77
2022-08-02T11:01:44.000Z,0.70
2022-08-02T11:02:42.655Z,0.80
2022-08-02T11:03:41.292Z,0.70
2022-08-02T11:04:37.925Z,0.70
2022-08-02T11:05:42.611Z,0.73
2022-08-02T11:07:08.070Z,0.70
2022-08-02T11:08:22.156Z,0.90
2022-08-02T11:09:31.990Z,0.80
2022-08-02T11:10:34.719Z,0.80
2022-08-02T11:11:54.336Z,0.80
2022-08-02T11:13:03.823Z,0.90
2022-08-02T11:14:01.256Z,1.00
2022-08-02T11:15:03.939Z,0.80
2022-08-02T11:16:11.258Z,0.90
2022-08-02T11:17:10.974Z,0.90
2022-08-02T11:18:07.739Z,0.77
2022-08-02T11:19:06.488Z,1.00
2022-08-02T11:20:12.827Z,0.80
2022-08-02T11:21:30.326Z,0.85
2022-08-02T11:22:27.048Z,0.90
2022-08-02T11:23:44.326Z,0.90
2022-08-02T11:24:42.629Z,0.90
2022-08-02T11:26:02.868Z,0.82
2022-08-02T11:26:57.719Z,0.70
2022-08-02T11:28:08.915Z,0.90
2022-08-02T11:29:05.680Z,1.10
2022-08-02T11:30:12.828Z,0.75
2022-08-02T11:31:09.930Z,0.70
2022-08-02T11:32:20.265Z,1.00
2022-08-02T11:33:17.391Z,0.80
2022-08-02T11:34:36.384Z,0.80
2022-08-02T11:35:34.866Z,1.00
2022-08-02T11:36:32.031Z,0.77
2022-08-02T11:37:35.719Z,0.60
2022-08-02T11:38:32.456Z,0.75
2022-08-02T11:39:29.254Z,0.80
2022-08-02T11:40:37.719Z,0.70
2022-08-02T11:41:46.641Z,1.00
2022-08-02T11:42:46.784Z,1.00
2022-08-02T11:43:43.661Z,0.80
2022-08-02T11:44:42.315Z,0.70
2022-08-02T11:45:39.081Z,0.77
2022-08-02T11:46:36.614Z,0.68
2022-08-02T11:47:33.971Z,0.73
2022-08-02T11:48:36.143Z,0.70
2022-08-02T11:49:33.041Z,1.10
2022-08-02T11:50:30.638Z,0.95
2022-08-02T11:51:27.418Z,0.90
2022-08-02T11:52:33.544Z,1.13
2022-08-02T11:53:34.225Z,0.70
2022-08-02T11:54:42.476Z,0.90
2022-08-02T11:55:39.091Z,1.30
2022-08-02T11:56:35.799Z,0.80
2022-08-02T11:58:02.818Z,0.90
2022-08-02T11:59:02.638Z,0.90
2022-08-02T11:59:59.256Z,0.93
2022-08-02T12:00:56.187Z,0.70
2022-08-02T12:01:56.585Z,0.90
2022-08-02T12:02:53.398Z,0.90
2022-08-02T12:03:50.445Z,0.80
2022-08-02T12:04:59.239Z,1.00
2022-08-02T12:06:05.855Z,1.00
2022-08-02T12:07:05.195Z,0.85
2022-08-02T12:08:06.832Z,0.73
2022-08-02T12:09:17.943Z,0.90
2022-08-02T12:10:21.925Z,0.88
2022-08-02T12:11:21.471Z,0.80
2022-08-02T12:12:18.042Z,0.98
2022-08-02T12:13:15.103Z,0.80
2022-08-02T12:14:11.936Z,1.00
2022-08-02T12:15:09.294Z,0.80
2022-08-02T12:16:30.202Z,0.70
2022-08-02T12:17:47.761Z,0.90
2022-08-02T12:19:07.341Z,0.70
2022-08-02T12:20:04.501Z,0.80
2022-08-02T12:21:02.346Z,0.75
2022-08-02T12:22:18.642Z,0.70
2022-08-02T12:23:15.388Z,0.85
2022-08-02T12:24:12.941Z,0.70
2022-08-02T12:25:33.361Z,0.80
2022-08-02T12:26:42.223Z,0.63
2022-08-02T12:27:43.537Z,0.70
2022-08-02T12:28:40.997Z,0.80
2022-08-02T12:29:58.470Z,0.68
2022-08-02T12:30:58.669Z,0.75
2022-08-02T12:31:56.280Z,0.70
2022-08-02T12:33:07.582Z,0.70
2022-08-02T12:34:16.996Z,0.70
2022-08-02T12:35:26.346Z,0.60
2022-08-02T12:36:28.014Z,0.70
2022-08-02T12:37:26.433Z,0.65
2022-08-02T12:38:23.109Z,0.90
2022-08-02T12:39:19.733Z,0.70
2022-08-02T12:40:33.100Z,0.70
2022-08-02T12:41:32.254Z,0.80
2022-08-02T12:42:29.437Z,0.80
2022-08-02T12:43:26.151Z,0.63
2022-08-02T12:44:22.803Z,0.85
2022-08-02T12:45:19.788Z,0.75
2022-08-02T12:46:18.763Z,0.90
2022-08-02T12:47:15.499Z,0.80
2022-08-02T12:48:12.235Z,0.70
2022-08-02T12:49:19.142Z,0.60
2022-08-02T12:50:18.566Z,0.70
2022-08-02T12:51:50.886Z,0.75
2022-08-02T12:52:46.876Z,0.70
2022-08-02T12:53:43.899Z,0.70
2022-08-02T12:54:41.183Z,0.90
2022-08-02T12:55:59.818Z,0.80
2022-08-02T12:57:14.094Z,0.60
2022-08-02T12:58:10.662Z,0.82
2022-08-02T12:59:07.623Z,0.90
2022-08-02T13:00:04.926Z,0.80
2022-08-02T13:01:01.873Z,0.70
2022-08-02T13:02:05.748Z,0.88
2022-08-02T13:03:02.747Z,0.85
2022-08-02T13:04:11.902Z,0.70
2022-08-02T13:05:09.941Z,0.70
2022-08-02T13:06:29.492Z,0.60
2022-08-02T13:07:24.153Z,0.60
2022-08-02T13:08:20.864Z,0.60
2022-08-02T13:09:17.849Z,0.77
2022-08-02T13:10:14.635Z,0.60
2022-08-02T13:11:11.505Z,0.60
2022-08-02T13:12:09.532Z,0.60
2022-08-02T13:13:06.387Z,0.65
2022-08-02T13:14:03.037Z,0.73
2022-08-02T13:14:59.699Z,0.70
2022-08-02T13:15:56.469Z,0.50
2022-08-02T13:16:55.454Z,0.70
2022-08-02T13:17:52.105Z,0.60
2022-08-02T13:18:49.682Z,0.80
2022-08-02T13:19:47.466Z,0.73
2022-08-02T13:20:49.026Z,0.70
2022-08-02T13:22:11.544Z,0.70
2022-08-02T13:23:04.046Z,0.75
2022-08-02T13:24:00.914Z,0.80
2022-08-02T13:24:57.604Z,0.80
2022-08-02T13:25:54.919Z,0.70
2022-08-02T13:26:51.865Z,0.70
2022-08-02T13:27:49.659Z,0.80
2022-08-02T13:28:46.906Z,0.75
2022-08-02T13:29:44.095Z,0.80
2022-08-02T13:30:40.753Z,0.70
2022-08-02T13:31:38.680Z,0.65
2022-08-02T13:32:35.489Z,0.60